Time;durP1;ratioP1;P1;durP2;ratioP2;P2;SDS_P1;SDS_P2;PMS_P1;PMS_P2;Temp;Humidity;BMP_temperature;BMP_pressure;BME280_temperature;BME280_humidity;BME280_pressure;Samples;Min_cycle;Max_cycle;Signal;HPM_P1;HPM_P2
2022/08/06 00:02:20;;;;;;;5.33;4.10;;;;;;;21.25;100.00;100165.13;1695141;84;21066;-57
2022/08/06 00:04:47;;;;;;;5.30;4.50;;;;;;;21.27;100.00;100172.29;1691158;84;21238;-69
2022/08/06 00:07:14;;;;;;;7.07;4.70;;;;;;;21.30;100.00;100178.94;1689787;84;20995;-57
2022/08/06 00:09:41;;;;;;;5.90;5.30;;;;;;;21.23;100.00;100178.36;1689858;84;21027;-59
2022/08/06 00:12:12;;;;;;;5.30;4.43;;;;;;;21.27;100.00;100183.42;1690177;84;21056;-57
2022/08/06 00:14:39;;;;;;;6.30;4.67;;;;;;;21.25;100.00;100177.06;1689787;84;21519;-59
2022/08/06 00:17:06;;;;;;;5.90;4.77;;;;;;;21.26;100.00;100183.16;1689326;84;21539;-58
2022/08/06 00:19:35;;;;;;;5.50;4.80;;;;;;;21.27;100.00;100179.45;1689968;84;21836;-59
2022/08/06 00:22:02;;;;;;;5.87;4.57;;;;;;;21.24;100.00;100182.07;1689888;84;21581;-57
2022/08/06 00:24:29;;;;;;;5.33;4.30;;;;;;;21.25;100.00;100194.30;1689660;84;20953;-68
2022/08/06 00:26:56;;;;;;;5.23;4.10;;;;;;;21.21;100.00;100177.27;1689518;84;20984;-67
2022/08/06 00:29:23;;;;;;;5.33;4.47;;;;;;;21.21;100.00;100182.58;1689403;84;21568;-57
2022/08/06 00:31:52;;;;;;;5.90;4.43;;;;;;;21.29;100.00;100187.42;1689981;84;21057;-57
2022/08/06 00:34:19;;;;;;;6.23;4.47;;;;;;;21.34;100.00;100188.80;1690123;84;21073;-58
2022/08/06 00:36:46;;;;;;;5.83;4.40;;;;;;;21.34;100.00;100198.62;1689308;84;21691;-62
2022/08/06 00:39:13;;;;;;;5.63;4.20;;;;;;;21.31;100.00;100202.53;1689706;84;21111;-67
2022/08/06 00:41:40;;;;;;;7.63;4.50;;;;;;;21.28;100.00;100195.09;1689910;84;21611;-57
2022/08/06 00:44:09;;;;;;;7.67;4.60;;;;;;;21.28;100.00;100203.57;1689631;84;21091;-58
2022/08/06 00:46:36;;;;;;;6.33;4.80;;;;;;;21.26;100.00;100201.72;1689645;84;21584;-57
2022/08/06 00:49:03;;;;;;;6.10;4.23;;;;;;;21.28;100.00;100196.94;1689201;84;21047;-57
2022/08/06 00:51:30;;;;;;;6.90;4.47;;;;;;;21.28;100.00;100203.04;1689117;84;21287;-58
2022/08/06 00:53:58;;;;;;;5.13;4.63;;;;;;;21.29;100.00;100204.66;1690042;84;21244;-57
2022/08/06 00:56:25;;;;;;;5.67;4.20;;;;;;;21.29;100.00;100205.98;1689291;84;20976;-60
2022/08/06 00:58:53;;;;;;;5.80;4.53;;;;;;;21.24;100.00;100209.91;1689563;84;21150;-60
2022/08/06 01:01:20;;;;;;;5.53;4.30;;;;;;;21.26;100.00;100214.97;1690112;84;21083;-57
2022/08/06 01:03:47;;;;;;;5.30;4.43;;;;;;;21.32;100.00;100212.61;1687796;84;21773;-58
2022/08/06 01:06:14;;;;;;;6.53;4.40;;;;;;;21.33;100.00;100207.63;1682113;85;21562;-57
2022/08/06 01:08:42;;;;;;;5.23;4.10;;;;;;;21.24;100.00;100213.89;1681871;85;20951;-69
2022/08/06 01:11:10;;;;;;;5.07;4.07;;;;;;;21.24;100.00;100218.39;1682196;84;21288;-57
2022/08/06 01:13:37;;;;;;;9.00;4.73;;;;;;;21.23;100.00;100216.27;1681743;85;21125;-59
2022/08/06 01:16:37;;;;;;;4.47;4.07;;;;;;;21.24;100.00;100223.16;1681740;85;21075;-58
2022/08/06 01:19:24;;;;;;;5.37;4.47;;;;;;;21.27;100.00;100218.69;1629810;87;21292;-58
2022/08/06 01:21:58;;;;;;;5.30;3.83;;;;;;;21.20;100.00;100225.25;1715742;83;20975;-65
2022/08/06 01:25:05;;;;;;;5.23;4.07;;;;;;;21.30;100.00;100229.31;1716267;83;21406;-58
2022/08/06 01:27:46;;;;;;;4.63;4.00;;;;;;;21.32;100.00;100223.22;1678044;85;20981;-57
2022/08/06 01:30:18;;;;;;;8.07;4.70;;;;;;;21.28;100.00;100220.27;1682242;85;21066;-57
2022/08/06 01:32:53;;;;;;;6.23;4.20;;;;;;;21.19;100.00;100226.31;1681505;85;21102;-57
2022/08/06 01:35:26;;;;;;;5.67;4.37;;;;;;;21.16;100.00;100224.17;1682169;85;21080;-57
2022/08/06 01:38:10;;;;;;;6.33;3.90;;;;;;;21.22;100.00;100223.96;1681868;85;21070;-57
2022/08/06 01:40:38;;;;;;;4.73;3.93;;;;;;;21.21;100.00;100222.88;1681932;85;21327;-65
2022/08/06 01:43:08;;;;;;;5.27;4.00;;;;;;;21.17;100.00;100230.53;1681989;85;21094;-58
2022/08/06 01:45:35;;;;;;;6.57;4.53;;;;;;;20.98;100.00;100230.11;1681971;85;21258;-58
2022/08/06 01:48:05;;;;;;;5.00;3.83;;;;;;;21.03;100.00;100230.17;1682107;85;21023;-68
2022/08/06 01:50:36;;;;;;;4.93;3.67;;;;;;;21.04;100.00;100234.41;1681361;85;21083;-69
2022/08/06 01:53:04;;;;;;;5.83;4.40;;;;;;;21.08;100.00;100232.06;1682058;85;21114;-57
2022/08/06 01:55:35;;;;;;;5.47;4.87;;;;;;;20.98;100.00;100234.09;1682204;85;21015;-57
2022/08/06 01:58:03;;;;;;;7.05;4.28;;;;;;;21.01;100.00;100230.14;1682674;85;21217;-58
2022/08/06 02:00:31;;;;;;;5.40;3.93;;;;;;;21.04;100.00;100237.06;1681661;84;21106;-61
2022/08/06 02:03:00;;;;;;;4.93;4.40;;;;;;;21.00;100.00;100237.30;1682647;85;21102;-57
2022/08/06 02:05:27;;;;;;;9.97;4.63;;;;;;;20.99;100.00;100232.27;1682702;84;21000;-58
2022/08/06 02:07:54;;;;;;;7.03;4.57;;;;;;;21.01;100.00;100234.13;1682896;85;21031;-57
2022/08/06 02:10:22;;;;;;;5.73;4.33;;;;;;;20.96;100.00;100232.77;1681917;85;21229;-66
2022/08/06 02:12:49;;;;;;;7.40;4.43;;;;;;;21.04;100.00;100239.72;1663033;85;22191;-57
2022/08/06 02:15:27;;;;;;;5.13;4.13;;;;;;;21.04;100.00;100241.05;1682676;85;21010;-57
2022/08/06 02:17:56;;;;;;;5.70;4.43;;;;;;;21.04;100.00;100242.89;1681803;85;21047;-58
2022/08/06 02:20:34;;;;;;;5.30;4.80;;;;;;;21.06;100.00;100242.92;1662065;85;21543;-58
2022/08/06 02:23:02;;;;;;;5.20;4.70;;;;;;;21.10;100.00;100253.80;1682882;85;21257;-57
2022/08/06 02:25:29;;;;;;;5.93;5.00;;;;;;;21.17;100.00;100248.29;1682993;85;21090;-57
2022/08/06 02:27:57;;;;;;;7.70;4.67;;;;;;;21.12;100.00;100248.52;1682534;85;21013;-65
2022/08/06 02:30:24;;;;;;;5.40;4.33;;;;;;;21.14;100.00;100248.29;1662246;85;21138;-57
2022/08/06 02:32:51;;;;;;;7.83;5.00;;;;;;;21.14;100.00;100245.11;1682855;85;21109;-57
2022/08/06 02:35:18;;;;;;;6.17;5.03;;;;;;;21.20;100.00;100245.94;1683074;85;21176;-57
2022/08/06 02:37:49;;;;;;;5.50;4.53;;;;;;;21.17;100.00;100239.81;1682549;85;20948;-59
2022/08/06 02:40:27;;;;;;;5.80;4.70;;;;;;;21.17;100.00;100250.94;1663302;85;21104;-59
2022/08/06 02:43:08;;;;;;;6.27;4.80;;;;;;;21.20;100.00;100243.28;1682581;85;21604;-57
2022/08/06 02:45:54;;;;;;;6.87;4.40;;;;;;;21.23;100.00;100247.28;1681601;85;20999;-57
2022/08/06 02:48:45;;;;;;;5.07;4.57;;;;;;;21.24;100.00;100244.37;1681920;85;21147;-57
2022/08/06 02:51:15;;;;;;;6.63;5.20;;;;;;;21.27;100.00;100252.36;1682307;85;21835;-58
2022/08/06 02:53:57;;;;;;;5.67;4.90;;;;;;;21.28;100.00;100254.74;1682342;85;21122;-57
2022/08/06 02:56:24;;;;;;;9.73;5.20;;;;;;;21.33;100.00;100256.69;1681783;85;21058;-60
2022/08/06 02:58:52;;;;;;;5.63;5.03;;;;;;;21.32;100.00;100261.66;1640170;85;21089;-57
2022/08/06 03:01:23;;;;;;;6.50;5.00;;;;;;;21.30;100.00;100270.41;1682633;85;21239;-57
2022/08/06 03:03:52;;;;;;;6.22;4.65;;;;;;;21.38;100.00;100273.41;1683197;85;21023;-59
2022/08/06 03:06:20;;;;;;;9.77;5.03;;;;;;;21.42;100.00;100273.71;1682358;84;21115;-61
2022/08/06 03:08:47;;;;;;;5.83;5.23;;;;;;;21.41;100.00;100268.67;1682682;85;21545;-57
2022/08/06 03:11:14;;;;;;;6.33;5.00;;;;;;;21.39;100.00;100270.23;1682988;85;21565;-57
2022/08/06 03:13:41;;;;;;;6.23;5.20;;;;;;;21.39;100.00;100266.25;1683065;85;21265;-57
2022/08/06 03:16:10;;;;;;;6.43;4.93;;;;;;;21.40;100.00;100269.17;1662635;85;21485;-58
2022/08/06 03:18:37;;;;;;;6.20;5.07;;;;;;;21.44;100.00;100267.64;1681689;85;21055;-61
2022/08/06 03:21:05;;;;;;;7.70;4.83;;;;;;;21.46;100.00;100266.84;1682256;85;21494;-58
2022/08/06 03:23:33;;;;;;;6.00;5.40;;;;;;;21.46;100.00;100266.84;1682671;85;21083;-59
2022/08/06 03:26:00;;;;;;;7.90;5.43;;;;;;;21.54;100.00;100272.99;1682272;85;21269;-57
2022/08/06 03:28:27;;;;;;;5.83;5.20;;;;;;;21.49;100.00;100280.92;1662115;85;21548;-57
2022/08/06 03:30:54;;;;;;;7.97;5.07;;;;;;;21.51;100.00;100281.45;1681488;85;21539;-59
2022/08/06 03:33:21;;;;;;;5.53;4.93;;;;;;;21.53;100.00;100281.22;1682272;85;21858;-58
2022/08/06 03:35:49;;;;;;;6.23;5.00;;;;;;;21.52;100.00;100281.75;1682085;85;20981;-59
2022/08/06 03:38:17;;;;;;;6.83;5.23;;;;;;;21.54;100.00;100279.62;1681558;85;21135;-68
2022/08/06 03:40:44;;;;;;;6.27;4.80;;;;;;;21.58;100.00;100281.23;1682165;85;20995;-59
2022/08/06 03:43:11;;;;;;;6.13;4.77;;;;;;;21.69;100.00;100276.80;1681603;85;21024;-57
2022/08/06 03:45:42;;;;;;;5.70;5.20;;;;;;;21.76;100.00;100278.71;1682440;85;21143;-57
2022/08/06 03:48:09;;;;;;;7.33;5.55;;;;;;;21.81;100.00;100272.09;1681955;85;21036;-68
2022/08/06 03:50:43;;;;;;;7.40;5.17;;;;;;;21.84;100.00;100281.67;1681634;84;21238;-57
2022/08/06 03:53:20;;;;;;;5.93;5.13;;;;;;;21.87;100.00;100284.34;1681937;85;21361;-59
2022/08/06 03:55:47;;;;;;;5.63;4.60;;;;;;;21.88;100.00;100279.30;1682216;85;21035;-57
2022/08/06 03:58:14;;;;;;;6.00;5.37;;;;;;;21.85;100.00;100285.91;1681767;85;21462;-61
2022/08/06 04:00:47;;;;;;;9.10;5.40;;;;;;;21.84;100.00;100281.67;1662137;85;20991;-58
2022/08/06 04:03:14;;;;;;;8.30;4.70;;;;;;;21.86;100.00;100281.44;1670250;85;21320;-58
2022/08/06 04:05:42;;;;;;;6.23;5.17;;;;;;;21.89;100.00;100288.06;1679116;85;20885;-57
2022/08/06 04:08:09;;;;;;;5.73;5.00;;;;;;;21.79;100.00;100296.25;1721572;83;20969;-57
2022/08/06 04:10:43;;;;;;;7.37;5.47;;;;;;;21.79;100.00;100292.27;1721828;83;20941;-67
2022/08/06 04:13:13;;;;;;;8.53;5.00;;;;;;;21.75;100.00;100290.39;1687404;84;21341;-58
2022/08/06 04:15:40;;;;;;;6.57;4.73;;;;;;;21.75;100.00;100295.69;1721587;83;21888;-58
2022/08/06 04:18:17;;;;;;;5.83;4.67;;;;;;;21.83;100.00;100291.23;1686606;84;22348;-58
2022/08/06 04:20:47;;;;;;;6.63;4.70;;;;;;;21.83;100.00;100292.55;1720289;83;21021;-58
2022/08/06 04:23:14;;;;;;;5.73;5.13;;;;;;;21.92;100.00;100283.57;1686996;84;20987;-58
2022/08/06 04:25:54;;;;;;;6.93;4.53;;;;;;;21.94;100.00;100285.45;1721351;83;21048;-57
2022/08/06 04:28:23;;;;;;;6.42;4.95;;;;;;;21.89;100.00;100283.55;1686850;84;21210;-58
2022/08/06 04:30:51;;;;;;;6.47;5.17;;;;;;;21.93;100.00;100281.97;1722087;83;21327;-57
2022/08/06 04:33:21;;;;;;;5.77;5.17;;;;;;;22.08;100.00;100281.26;1721643;83;21025;-66
2022/08/06 04:35:48;;;;;;;5.50;5.00;;;;;;;22.26;100.00;100289.34;1722140;83;21040;-57
2022/08/06 04:38:17;;;;;;;7.47;4.60;;;;;;;22.33;100.00;100291.23;1721756;83;20914;-60
2022/08/06 04:40:44;;;;;;;6.63;5.13;;;;;;;22.42;100.00;100291.52;1686932;84;21151;-60
2022/08/06 04:43:12;;;;;;;6.10;4.70;;;;;;;22.49;100.00;100297.39;1721577;83;20985;-65
2022/08/06 04:45:41;;;;;;;7.07;5.77;;;;;;;22.56;100.00;100288.64;1686713;84;21524;-58
2022/08/06 04:48:10;;;;;;;5.87;5.13;;;;;;;22.56;100.00;100288.64;1722345;83;20996;-57
2022/08/06 04:50:37;;;;;;;5.30;4.70;;;;;;;22.56;100.00;100290.77;1721305;83;21068;-59
2022/08/06 04:53:14;;;;;;;6.83;5.60;;;;;;;22.54;100.00;100290.25;1721907;83;21894;-64
2022/08/06 04:55:42;;;;;;;6.20;5.23;;;;;;;22.59;100.00;100290.25;1686873;84;21120;-57
2022/08/06 04:58:11;;;;;;;5.87;4.67;;;;;;;22.72;100.00;100294.80;1722283;83;21040;-68
2022/08/06 05:00:42;;;;;;;6.60;5.47;;;;;;;22.73;100.00;100295.88;1721824;83;20993;-57
2022/08/06 05:03:10;;;;;;;6.10;5.50;;;;;;;22.74;100.00;100294.81;1685923;84;25722;-58
2022/08/06 05:05:48;;;;;;;7.40;5.27;;;;;;;22.77;100.00;100292.96;1712807;83;21163;-57
2022/08/06 05:08:15;;;;;;;7.97;5.37;;;;;;;22.77;100.00;100292.16;1696399;83;21587;-63
2022/08/06 05:10:53;;;;;;;7.27;5.27;;;;;;;22.85;100.00;100290.85;1697303;84;21534;-62
2022/08/06 05:13:21;;;;;;;6.77;4.90;;;;;;;22.90;100.00;100294.30;1697501;84;21459;-59
2022/08/06 05:15:53;;;;;;;9.73;5.93;;;;;;;22.95;100.00;100291.67;1697263;84;21070;-57
2022/08/06 05:18:28;;;;;;;5.37;4.87;;;;;;;23.05;100.00;100289.03;1696800;84;21883;-58
2022/08/06 05:20:56;;;;;;;6.77;5.17;;;;;;;23.20;100.00;100280.80;1696420;83;20982;-58
2022/08/06 05:23:31;;;;;;;6.37;4.73;;;;;;;23.28;100.00;100276.27;1697763;84;21326;-58
2022/08/06 05:25:58;;;;;;;7.83;5.20;;;;;;;23.49;100.00;100283.19;1697346;84;21075;-65
2022/08/06 05:28:25;;;;;;;6.83;5.10;;;;;;;23.65;100.00;100284.48;1697074;84;21026;-58
2022/08/06 05:30:54;;;;;;;7.13;6.00;;;;;;;23.84;100.00;100276.77;1696998;84;22232;-57
2022/08/06 05:33:36;;;;;;;6.10;5.50;;;;;;;24.09;100.00;100281.19;1697165;84;21483;-58
2022/08/06 05:36:00;;;;;;;6.83;5.17;;;;;;;24.34;100.00;100280.30;1696618;84;20955;-67
2022/08/06 05:38:27;;;;;;;6.90;5.37;;;;;;;24.53;100.00;100278.63;1696808;84;21128;-59
2022/08/06 05:40:56;;;;;;;6.03;5.43;;;;;;;24.72;100.00;100280.13;1697371;84;21833;-57
2022/08/06 05:43:23;;;;;;;6.73;5.60;;;;;;;24.91;100.00;100277.05;1697552;84;21312;-57
2022/08/06 05:45:55;;;;;;;6.93;6.10;;;;;;;25.06;100.00;100277.48;1697899;84;20954;-58
2022/08/06 05:48:22;;;;;;;6.80;5.10;;;;;;;25.29;100.00;100271.98;1696713;84;21493;-66
2022/08/06 05:50:58;;;;;;;6.70;5.07;;;;;;;25.55;100.00;100271.75;1697814;83;21697;-57
2022/08/06 05:53:33;;;;;;;6.83;5.33;;;;;;;25.64;100.00;100268.16;1698111;84;20982;-57
2022/08/06 05:56:07;;;;;;;7.92;5.42;;;;;;;25.77;100.00;100272.05;1671891;84;21801;-65
2022/08/06 05:58:45;;;;;;;7.05;5.10;;;;;;;26.00;100.00;100275.04;1697215;84;21363;-57
2022/08/06 06:01:12;;;;;;;7.72;5.28;;;;;;;26.39;100.00;100267.58;1697868;84;21567;-57
2022/08/06 06:03:40;;;;;;;6.42;5.12;;;;;;;26.92;100.00;100267.37;1697892;83;21646;-59
2022/08/06 06:06:07;;;;;;;7.10;5.70;;;;;;;27.39;100.00;100272.26;1697404;83;21073;-61
2022/08/06 06:08:36;;;;;;;7.37;5.22;;;;;;;27.84;100.00;100265.02;1697891;84;21264;-59
2022/08/06 06:11:04;;;;;;;6.35;5.22;;;;;;;29.18;100.00;100259.12;1698010;84;20903;-58
2022/08/06 06:13:32;;;;;;;5.92;4.60;;;;;;;29.18;100.00;100259.12;1698165;83;20966;-57
2022/08/06 06:16:29;;;;;;;7.12;4.67;;;;;;;30.11;100.00;100256.88;1697885;84;21015;-65
2022/08/06 06:19:35;;;;;;;6.80;4.30;;;;;;;30.76;100.00;100264.11;1697159;82;20998;-58
2022/08/06 06:22:25;;;;;;;5.22;4.30;;;;;;;31.37;100.00;100251.88;1698102;84;21149;-59
2022/08/06 06:25:33;;;;;;;5.40;3.90;;;;;;;32.06;81.87;100248.06;1697346;84;20972;-60
2022/08/06 06:28:08;;;;;;;8.40;4.03;;;;;;;32.56;79.19;100252.62;1698501;84;20955;-68
2022/08/06 06:30:46;;;;;;;7.47;4.12;;;;;;;33.11;69.96;100257.42;1697682;84;21521;-59
2022/08/06 06:33:39;;;;;;;6.55;4.10;;;;;;;33.15;64.41;100256.45;1691650;84;21065;-57
2022/08/06 06:36:27;;;;;;;6.90;3.70;;;;;;;32.93;64.22;100256.28;1697876;84;21668;-58
2022/08/06 06:39:05;;;;;;;5.15;3.87;;;;;;;32.64;67.06;100255.80;1698262;84;21511;-58
2022/08/06 06:41:46;;;;;;;7.78;4.10;;;;;;;32.70;69.68;100254.48;1697208;84;21422;-67
2022/08/06 06:44:46;;;;;;;5.97;4.25;;;;;;;32.88;69.50;100255.66;1697122;84;21005;-58
2022/08/06 06:47:17;;;;;;;7.08;3.95;;;;;;;32.81;65.78;100255.43;1697711;84;21020;-57
2022/08/06 06:49:50;;;;;;;5.03;4.53;;;;;;;32.32;67.76;100252.48;1698064;84;21598;-57
2022/08/06 06:52:34;;;;;;;7.08;4.55;;;;;;;31.92;69.60;100250.20;1697526;84;21140;-67
2022/08/06 06:55:27;;;;;;;6.67;4.33;;;;;;;31.39;78.28;100259.62;1697500;83;21547;-57
2022/08/06 06:58:11;;;;;;;4.92;4.42;;;;;;;30.94;80.67;100259.47;1697184;84;21033;-64
2022/08/06 07:00:38;;;;;;;7.80;4.10;;;;;;;30.59;85.58;100256.00;1694580;83;21349;-58
2022/08/06 07:03:06;;;;;;;5.90;4.70;;;;;;;30.16;90.27;100263.50;1697808;84;21142;-58
2022/08/06 07:05:34;;;;;;;6.92;4.53;;;;;;;29.85;97.33;100260.06;1699154;82;21014;-64
2022/08/06 07:08:02;;;;;;;6.58;4.83;;;;;;;29.53;100.00;100259.30;1682099;85;21458;-59
2022/08/06 07:10:30;;;;;;;7.25;4.70;;;;;;;29.28;100.00;100257.53;1662753;85;21059;-58
2022/08/06 07:12:57;;;;;;;9.95;5.10;;;;;;;29.24;100.00;100255.20;1682327;85;21066;-57
2022/08/06 07:15:25;;;;;;;8.05;4.90;;;;;;;29.23;100.00;100258.98;1682158;85;22635;-57
2022/08/06 07:17:53;;;;;;;6.78;5.12;;;;;;;29.14;100.00;100260.84;1681939;85;20972;-58
2022/08/06 07:20:28;;;;;;;6.15;4.80;;;;;;;29.09;100.00;100262.30;1681585;85;21397;-66
2022/08/06 07:23:00;;;;;;;7.05;5.25;;;;;;;28.95;100.00;100254.86;1682247;85;21094;-59
2022/08/06 07:25:27;;;;;;;5.05;4.58;;;;;;;28.83;100.00;100256.20;1681909;85;20975;-58
2022/08/06 07:27:54;;;;;;;5.50;5.00;;;;;;;28.69;100.00;100257.35;1662362;85;21521;-58
2022/08/06 07:30:21;;;;;;;5.62;4.95;;;;;;;28.56;100.00;100261.13;1681488;85;21067;-66
2022/08/06 07:32:49;;;;;;;7.65;4.70;;;;;;;28.47;100.00;100256.22;1682058;85;21188;-57
2022/08/06 07:35:18;;;;;;;5.92;5.12;;;;;;;28.47;100.00;100256.22;1682120;85;21019;-67
2022/08/06 07:37:55;;;;;;;6.60;5.10;;;;;;;28.48;100.00;100259.69;1682464;85;21542;-57
2022/08/06 07:40:32;;;;;;;5.75;4.87;;;;;;;28.42;100.00;100255.55;1681789;85;21202;-57
2022/08/06 07:43:11;;;;;;;6.72;5.00;;;;;;;28.46;100.00;100257.87;1681948;85;21139;-58
2022/08/06 07:45:38;;;;;;;4.95;4.45;;;;;;;28.77;100.00;100256.63;1682354;85;21467;-61
2022/08/06 07:48:12;;;;;;;4.90;4.40;;;;;;;28.91;100.00;100256.56;1681094;85;21084;-58
2022/08/06 07:50:42;;;;;;;7.80;4.85;;;;;;;28.91;100.00;100256.56;1682022;85;21568;-58
2022/08/06 07:53:09;;;;;;;6.80;4.83;;;;;;;29.02;100.00;100261.96;1681616;85;21225;-61
2022/08/06 07:55:37;;;;;;;6.65;4.78;;;;;;;29.12;100.00;100256.88;1682231;85;21844;-59
2022/08/06 07:58:05;;;;;;;5.03;4.53;;;;;;;29.45;100.00;100254.68;1661843;85;21049;-57
2022/08/06 08:00:34;;;;;;;6.55;5.12;;;;;;;29.45;100.00;100254.68;1682236;85;20967;-57
2022/08/06 08:08:32;;;;;;;7.92;5.42;;;;;;;30.10;100.00;100251.27;1681724;85;20959;-67
2022/08/06 08:11:00;;;;;;;4.42;3.90;;;;;;;30.43;100.00;100246.83;1681864;85;21117;-58
2022/08/06 08:13:27;;;;;;;7.53;4.20;;;;;;;30.69;100.00;100247.62;1681451;85;21027;-58
2022/08/06 08:15:55;;;;;;;6.60;3.55;;;;;;;31.00;96.51;100247.99;1682108;85;20995;-59
2022/08/06 08:18:31;;;;;;;7.20;3.85;;;;;;;30.97;93.57;100252.66;1682367;85;21330;-59
2022/08/06 08:21:01;;;;;;;8.45;3.87;;;;;;;30.97;89.12;100242.69;1662430;85;21093;-58
2022/08/06 08:23:30;;;;;;;;;;;;;;;31.02;93.63;100243.06;1664254;85;21020;-58
2022/08/06 08:25:59;;;;;;;5.33;3.55;;;;;;;31.11;88.65;100243.84;1681919;85;20357;-58
2022/08/06 08:28:26;;;;;;;5.00;3.87;;;;;;;31.19;81.49;100248.41;1681335;85;20987;-67
2022/08/06 08:30:53;;;;;;;6.85;3.50;;;;;;;31.47;83.36;100245.33;1682272;85;21387;-58
2022/08/06 08:33:20;;;;;;;5.87;4.20;;;;;;;32.00;74.14;100235.09;1681958;85;20984;-68
2022/08/06 08:35:47;;;;;;;6.47;3.45;;;;;;;32.14;67.67;100239.12;1681879;85;21060;-59
2022/08/06 08:38:15;;;;;;;5.95;4.45;;;;;;;32.18;70.19;100232.52;1681990;85;21053;-68
2022/08/06 08:40:42;;;;;;;6.83;3.85;;;;;;;32.43;72.50;100230.20;1681966;85;21508;-59
2022/08/06 08:43:12;;;;;;;6.45;3.77;;;;;;;32.59;67.11;100234.42;1682308;85;21606;-58
2022/08/06 08:45:39;;;;;;;6.58;3.65;;;;;;;32.45;63.63;100233.91;1681220;85;20999;-58
2022/08/06 08:48:07;;;;;;;6.42;3.52;;;;;;;31.91;62.64;100239.98;1682040;85;21163;-66
2022/08/06 08:50:34;;;;;;;6.45;3.10;;;;;;;31.25;65.65;100247.14;1681577;85;21053;-59
2022/08/06 08:53:05;;;;;;;4.97;3.92;;;;;;;30.80;74.08;100249.98;1662324;85;21069;-58
2022/08/06 08:55:33;;;;;;;6.97;3.98;;;;;;;30.60;78.25;100250.06;1681687;85;21260;-63
2022/08/06 08:58:00;;;;;;;7.37;3.75;;;;;;;30.41;79.20;100255.76;1681866;85;20952;-60
2022/08/06 09:00:27;;;;;;;5.28;4.00;;;;;;;30.36;82.54;100250.55;1681699;85;21018;-57
2022/08/06 09:02:56;;;;;;;5.28;3.50;;;;;;;30.30;81.46;100253.92;1681961;85;21533;-57
2022/08/06 09:05:23;;;;;;;8.08;3.40;;;;;;;30.25;78.11;100252.19;1682232;85;21004;-59
2022/08/06 09:07:52;;;;;;;6.20;3.50;;;;;;;30.10;73.05;100253.17;1681911;84;21161;-65
2022/08/06 09:10:19;;;;;;;5.28;3.20;;;;;;;29.84;67.08;100247.17;1681487;85;21647;-58
2022/08/06 09:12:47;;;;;;;4.25;3.10;;;;;;;29.87;71.71;100247.11;1654075;86;21069;-57
2022/08/06 09:15:17;;;;;;;4.17;2.50;;;;;;;30.26;71.82;100249.73;1654131;86;21132;-59
2022/08/06 09:17:50;;;;;;;4.95;2.92;;;;;;;30.87;64.99;100247.05;1642220;87;21041;-63
2022/08/06 09:20:17;;;;;;;6.03;2.80;;;;;;;31.42;61.56;100240.92;1681919;85;21152;-57
2022/08/06 09:22:49;;;;;;;3.77;2.83;;;;;;;31.91;55.99;100232.45;1654111;86;21505;-58
2022/08/06 09:25:41;;;;;;;3.55;2.60;;;;;;;32.37;53.78;100233.39;1642343;86;21710;-58
2022/08/06 09:28:29;;;;;;;4.37;2.87;;;;;;;32.51;52.10;100233.16;1681930;85;21359;-59
2022/08/06 09:31:13;;;;;;;3.42;2.25;;;;;;;32.73;51.97;100234.68;1646497;86;46192;-58
2022/08/06 09:33:45;;;;;;;9.33;3.37;;;;;;;33.11;52.64;100219.08;1642288;87;21380;-59
2022/08/06 09:36:13;;;;;;;6.17;2.33;;;;;;;33.65;51.49;100225.65;1679440;85;21090;-59
2022/08/06 09:38:59;;;;;;;4.12;2.45;;;;;;;34.07;47.66;100225.95;1682507;85;20931;-60
2022/08/06 09:41:29;;;;;;;3.10;2.22;;;;;;;34.31;46.29;100224.52;1682296;85;21510;-59
2022/08/06 09:43:57;;;;;;;5.22;2.10;;;;;;;34.60;45.95;100227.48;1654196;86;21060;-59
2022/08/06 09:46:44;;;;;;;3.77;2.10;;;;;;;34.91;44.02;100224.61;1642101;87;22550;-60
2022/08/06 09:49:12;;;;;;;5.75;2.00;;;;;;;35.24;44.17;100225.66;1682441;85;21985;-58
2022/08/06 09:51:40;;;;;;;5.10;2.27;;;;;;;35.51;43.89;100219.94;1682299;85;20999;-61
2022/08/06 09:54:09;;;;;;;6.75;2.00;;;;;;;36.02;42.82;100220.48;1682593;85;21625;-58
2022/08/06 09:56:37;;;;;;;3.67;2.20;;;;;;;36.20;40.66;100205.92;1682100;85;21524;-63
2022/08/06 09:59:06;;;;;;;4.90;2.10;;;;;;;36.08;41.58;100208.21;1682124;85;22258;-58
2022/08/06 10:01:43;;;;;;;3.98;2.37;;;;;;;36.00;40.93;100210.57;1682352;85;21109;-58
2022/08/06 10:04:16;;;;;;;4.75;2.00;;;;;;;36.06;40.26;100209.91;1654586;85;20963;-58
2022/08/06 10:07:01;;;;;;;3.02;2.10;;;;;;;35.89;39.84;100208.95;1658174;84;21591;-58
2022/08/06 10:09:31;;;;;;;4.17;2.10;;;;;;;35.69;39.32;100207.36;1690571;84;21409;-58
2022/08/06 10:11:58;;;;;;;5.10;2.70;;;;;;;35.38;40.09;100212.22;1690509;84;22107;-57
2022/08/06 10:14:28;;;;;;;4.05;2.00;;;;;;;35.21;41.73;100203.32;1689405;84;21506;-58
2022/08/06 10:17:19;;;;;;;4.58;2.05;;;;;;;35.04;41.58;100207.73;1690733;84;21557;-58
2022/08/06 10:19:50;;;;;;;5.55;1.98;;;;;;;34.87;42.29;100202.06;1689412;84;21004;-67
2022/08/06 10:22:17;;;;;;;;;;;;;;;34.80;44.80;100208.64;1690107;84;21345;-58
2022/08/06 10:24:49;;;;;;;3.80;1.95;;;;;;;34.73;41.62;100203.04;1690635;84;21166;-60
2022/08/06 10:27:21;;;;;;;6.25;2.42;;;;;;;34.54;41.41;100204.48;1690439;84;20969;-58
2022/08/06 10:29:54;;;;;;;4.17;1.85;;;;;;;34.32;41.00;100203.11;1689285;84;21060;-58
2022/08/06 10:32:35;;;;;;;3.42;1.82;;;;;;;34.03;40.61;100202.86;1690252;84;21922;-58
2022/08/06 10:35:04;;;;;;;3.37;2.30;;;;;;;33.85;41.42;100200.16;1690680;84;21004;-58
2022/08/06 10:37:35;;;;;;;3.37;2.07;;;;;;;33.74;41.81;100205.81;1689307;84;21250;-63
2022/08/06 10:40:02;;;;;;;3.40;1.62;;;;;;;33.71;42.34;100205.13;1690390;84;21135;-59
2022/08/06 10:42:30;;;;;;;3.72;1.92;;;;;;;33.68;42.18;100198.51;1690151;84;20961;-58
2022/08/06 10:44:58;;;;;;;5.47;2.00;;;;;;;33.61;42.45;100198.29;1689740;84;21004;-67
2022/08/06 10:47:26;;;;;;;5.33;1.90;;;;;;;33.64;41.86;100191.64;1689998;84;21000;-68
2022/08/06 10:49:53;;;;;;;3.55;1.75;;;;;;;33.65;41.87;100191.86;1641816;84;21253;-58
2022/08/06 10:52:21;;;;;;;3.83;1.70;;;;;;;33.59;40.59;100198.61;1689767;84;21114;-60
2022/08/06 10:54:48;;;;;;;2.70;1.50;;;;;;;33.58;41.73;100192.98;1689794;84;21079;-59
2022/08/06 10:57:16;;;;;;;8.50;2.17;;;;;;;33.74;40.92;100185.53;1689280;84;21526;-59
2022/08/06 10:59:43;;;;;;;2.65;1.60;;;;;;;34.09;40.66;100189.30;1689157;84;21070;-59
2022/08/06 11:02:38;;;;;;;3.42;1.67;;;;;;;34.49;41.21;100191.21;1690100;84;21152;-58
2022/08/06 11:05:20;;;;;;;3.65;1.70;;;;;;;34.90;38.93;100183.77;1689562;84;21153;-62
2022/08/06 11:08:19;;;;;;;4.83;1.62;;;;;;;35.27;38.12;100183.50;1686847;84;20987;-58
2022/08/06 11:11:07;;;;;;;2.98;1.30;;;;;;;35.49;36.40;100180.17;1681534;85;21597;-58
2022/08/06 11:13:41;;;;;;;4.42;1.80;;;;;;;35.60;36.64;100188.55;1682352;85;21070;-58
2022/08/06 11:16:09;;;;;;;3.98;1.52;;;;;;;35.75;35.17;100183.66;1681191;85;21505;-60
2022/08/06 11:18:36;;;;;;;3.20;1.27;;;;;;;35.71;34.81;100185.51;1640358;85;21693;-58
2022/08/06 11:21:05;;;;;;;4.30;1.82;;;;;;;35.66;35.90;100182.30;1682182;85;21062;-59
2022/08/06 11:23:32;;;;;;;4.58;1.62;;;;;;;35.81;35.66;100178.75;1682335;85;21016;-57
2022/08/06 11:26:02;;;;;;;3.70;1.30;;;;;;;35.85;35.04;100178.26;1682052;85;21098;-58
2022/08/06 11:28:34;;;;;;;6.42;1.67;;;;;;;35.94;34.34;100169.91;1682365;85;21173;-58
2022/08/06 11:31:04;;;;;;;4.80;1.50;;;;;;;35.82;34.11;100174.89;1682269;85;21063;-57
2022/08/06 11:33:39;;;;;;;4.10;1.47;;;;;;;35.81;33.56;100174.69;1681605;85;20959;-61
2022/08/06 11:36:12;;;;;;;2.90;1.67;;;;;;;35.77;32.56;100165.69;1681526;85;21067;-58
2022/08/06 11:38:57;;;;;;;2.45;1.50;;;;;;;35.73;33.12;100164.83;1682156;85;21110;-58
2022/08/06 11:41:27;;;;;;;3.75;1.52;;;;;;;35.85;32.71;100164.70;1682367;85;21321;-58
2022/08/06 11:43:59;;;;;;;3.50;1.37;;;;;;;35.99;33.47;100165.02;1681801;85;21078;-58
2022/08/06 11:46:33;;;;;;;5.08;1.37;;;;;;;36.16;33.76;100164.37;1682679;85;21023;-58